Time,TemperatureF,DewpointF,PressureIn,WindDirection,WindDirectionDegrees,WindSpeedMPH,WindSpeedGustMPH,Humidity,HourlyPrecipIn,Conditions,Clouds,dailyrainin,SoftwareType,DateUTC
2013-04-27 00:01:00,49.9,40.6,30.36,SSE,148,2.0,4.0,70,0.00,,,0.00,WUHU216DAVISVP2,2013-04-27 04:01:00,
2013-04-27 00:06:00,49.9,40.6,30.36,SSE,148,2.0,4.0,70,0.00,,,0.00,WUHU216DAVISVP2,2013-04-27 04:06:00,
2013-04-27 00:19:00,49.7,40.4,30.36,SE,125,1.0,3.0,70,0.00,,,0.00,WUHU216DAVISVP2,2013-04-27 04:19:00,
2013-04-27 00:24:00,49.7,40.4,30.36,SE,135,2.0,3.0,70,0.00,,,0.00,WUHU216DAVISVP2,2013-04-27 04:24:00,
2013-04-27 00:41:00,49.5,40.2,30.37,SE,146,1.0,3.0,70,0.00,,,0.00,WUHU216DAVISVP2,2013-04-27 04:41:00,
2013-04-27 00:46:00,49.3,40.4,30.37,SE,145,0.0,3.0,71,0.00,,,0.00,WUHU216DAVISVP2,2013-04-27 04:46:00,
2013-04-27 00:51:00,49.1,40.2,30.37,SE,139,0.0,3.0,71,0.00,,,0.00,WUHU216DAVISVP2,2013-04-27 04:51:00,
2013-04-27 01:03:00,48.9,40.0,30.37,SE,135,1.0,2.0,71,0.00,,,0.00,WUHU216DAVISVP2,2013-04-27 05:03:00,
2013-04-27 01:08:00,48.9,40.0,30.37,SSE,148,0.0,2.0,71,0.00,,,0.00,WUHU216DAVISVP2,2013-04-27 05:08:00,
2013-04-27 01:13:00,48.9,40.0,30.37,SSE,154,1.0,2.0,71,0.00,,,0.00,WUHU216DAVISVP2,2013-04-27 05:13:00,
2013-04-27 01:25:00,49.2,39.9,30.37,SSE,148,2.0,3.0,70,0.00,,,0.00,WUHU216DAVISVP2,2013-04-27 05:25:00,
2013-04-27 01:30:00,48.9,39.6,30.37,SSE,153,1.0,3.0,70,0.00,,,0.00,WUHU216DAVISVP2,2013-04-27 05:30:00,
2013-04-27 01:47:00,48.3,39.4,30.36,SE,137,0.0,2.0,71,0.00,,,0.00,WUHU216DAVISVP2,2013-04-27 05:47:00,
2013-04-27 01:52:00,48.3,39.8,30.36,SE,143,1.0,2.0,72,0.00,,,0.00,WUHU216DAVISVP2,2013-04-27 05:52:00,
2013-04-27 01:57:00,48.4,39.5,30.36,SE,140,0.0,2.0,71,0.00,,,0.00,WUHU216DAVISVP2,2013-04-27 05:57:00,
2013-04-27 02:08:00,48.1,39.6,30.36,SE,129,0.0,2.0,72,0.00,,,0.00,WUHU216DAVISVP2,2013-04-27 06:08:00,
2013-04-27 02:13:00,48.0,39.5,30.36,SE,130,0.0,2.0,72,0.00,,,0.00,WUHU216DAVISVP2,2013-04-27 06:13:00,
2013-04-27 02:30:00,48.0,39.5,30.35,SE,131,1.0,2.0,72,0.00,,,0.00,WUHU216DAVISVP2,2013-04-27 06:30:00,
2013-04-27 02:35:00,48.0,39.5,30.35,SE,131,0.0,2.0,72,0.00,,,0.00,WUHU216DAVISVP2,2013-04-27 06:35:00,
2013-04-27 02:52:00,48.0,39.5,30.35,SE,129,1.0,2.0,72,0.00,,,0.00,WUHU216DAVISVP2,2013-04-27 06:52:00,
2013-04-27 02:57:00,48.0,39.1,30.34,SE,139,1.0,2.0,71,0.00,,,0.00,WUHU216DAVISVP2,2013-04-27 06:57:00,
2013-04-27 03:14:00,47.7,38.8,30.34,SE,130,0.0,2.0,71,0.00,,,0.00,WUHU216DAVISVP2,2013-04-27 07:14:00,
2013-04-27 03:19:00,47.6,39.1,30.34,SE,140,1.0,2.0,72,0.00,,,0.00,WUHU216DAVISVP2,2013-04-27 07:19:00,
2013-04-27 03:24:00,47.5,38.7,30.34,SE,134,1.0,2.0,71,0.00,,,0.00,WUHU216DAVISVP2,2013-04-27 07:24:00,
2013-04-27 03:36:00,47.2,38.7,30.33,ENE,70,1.0,2.0,72,0.00,,,0.00,WUHU216DAVISVP2,2013-04-27 07:36:00,
2013-04-27 03:41:00,46.3,38.5,30.33,ENE,60,1.0,1.0,74,0.00,,,0.00,WUHU216DAVISVP2,2013-04-27 07:41:00,
2013-04-27 03:46:00,45.8,38.4,30.33,ENE,60,1.0,1.0,75,0.00,,,0.00,WUHU216DAVISVP2,2013-04-27 07:46:00,
2013-04-27 03:58:00,44.4,37.6,30.33,ENE,63,0.0,1.0,77,0.00,,,0.00,WUHU216DAVISVP2,2013-04-27 07:58:00,
2013-04-27 04:03:00,43.8,37.7,30.33,ENE,65,0.0,1.0,79,0.00,,,0.00,WUHU216DAVISVP2,2013-04-27 08:03:00,
2013-04-27 04:20:00,43.7,37.6,30.33,ESE,123,0.0,0.0,79,0.00,,,0.00,WUHU216DAVISVP2,2013-04-27 08:20:00,
2013-04-27 04:25:00,43.1,37.7,30.33,ESE,105,0.0,0.0,81,0.00,,,0.00,WUHU216DAVISVP2,2013-04-27 08:25:00,
2013-04-27 04:42:00,42.4,37.3,30.33,ESE,105,0.0,0.0,82,0.00,,,0.00,WUHU216DAVISVP2,2013-04-27 08:42:00,
2013-04-27 04:47:00,42.1,37.0,30.33,ESE,106,0.0,0.0,82,0.00,,,0.00,WUHU216DAVISVP2,2013-04-27 08:47:00,
2013-04-27 05:04:00,40.8,36.6,30.32,SE,131,0.0,0.0,85,0.00,,,0.00,WUHU216DAVISVP2,2013-04-27 09:04:00,
2013-04-27 05:09:00,41.0,37.1,30.32,SE,138,0.0,0.0,86,0.00,,,0.00,WUHU216DAVISVP2,2013-04-27 09:09:00,
2013-04-27 05:14:00,41.0,36.8,30.32,SE,138,0.0,0.0,85,0.00,,,0.00,WUHU216DAVISVP2,2013-04-27 09:14:00,
2013-04-27 05:26:00,40.7,36.5,30.32,SE,139,0.0,0.0,85,0.00,,,0.00,WUHU216DAVISVP2,2013-04-27 09:26:00,
2013-04-27 05:31:00,40.5,36.3,30.32,SE,138,0.0,0.0,85,0.00,,,0.00,WUHU216DAVISVP2,2013-04-27 09:31:00,
2013-04-27 05:47:00,40.3,36.7,30.32,SE,138,0.0,0.0,87,0.00,,,0.00,WUHU216DAVISVP2,2013-04-27 09:47:00,
2013-04-27 05:52:00,40.4,36.8,30.32,SE,138,0.0,0.0,87,0.00,,,0.00,WUHU216DAVISVP2,2013-04-27 09:52:00,
2013-04-27 06:09:00,40.3,36.7,30.32,SE,136,0.0,0.0,87,0.00,,,0.00,WUHU216DAVISVP2,2013-04-27 10:09:00,
2013-04-27 06:14:00,40.4,36.8,30.32,SE,129,0.0,0.0,87,0.00,,,0.00,WUHU216DAVISVP2,2013-04-27 10:14:00,
2013-04-27 06:31:00,40.6,36.7,30.32,ESE,120,0.0,0.0,86,0.00,,,0.00,WUHU216DAVISVP2,2013-04-27 10:31:00,
2013-04-27 06:36:00,40.4,36.5,30.32,ESE,120,0.0,0.0,86,0.00,,,0.00,WUHU216DAVISVP2,2013-04-27 10:36:00,
2013-04-27 06:53:00,39.7,35.8,30.32,ENE,77,0.0,0.0,86,0.00,,,0.00,WUHU216DAVISVP2,2013-04-27 10:53:00,
2013-04-27 06:58:00,39.4,35.5,30.32,ENE,77,0.0,0.0,86,0.00,,,0.00,WUHU216DAVISVP2,2013-04-27 10:58:00,
2013-04-27 07:15:00,40.2,36.9,30.32,ENE,77,0.0,0.0,88,0.00,,,0.00,WUHU216DAVISVP2,2013-04-27 11:15:00,
2013-04-27 07:20:00,40.8,37.2,30.32,ENE,76,0.0,0.0,87,0.00,,,0.00,WUHU216DAVISVP2,2013-04-27 11:20:00,
2013-04-27 07:25:00,41.3,37.4,30.32,ENE,77,0.0,0.0,86,0.00,,,0.00,WUHU216DAVISVP2,2013-04-27 11:25:00,
2013-04-27 07:37:00,42.9,38.1,30.32,ENE,65,0.0,0.0,83,0.00,,,0.00,WUHU216DAVISVP2,2013-04-27 11:37:00,
2013-04-27 07:42:00,43.5,38.4,30.32,ENE,65,0.0,0.0,82,0.00,,,0.00,WUHU216DAVISVP2,2013-04-27 11:42:00,
2013-04-27 07:59:00,44.7,39.5,30.32,ENE,72,0.0,0.0,82,0.00,,,0.00,WUHU216DAVISVP2,2013-04-27 11:59:00,
2013-04-27 08:04:00,45.2,40.0,30.32,East,79,1.0,1.0,82,0.00,,,0.00,WUHU216DAVISVP2,2013-04-27 12:04:00,
2013-04-27 08:21:00,46.9,40.1,30.32,East,91,0.0,2.0,77,0.00,,,0.00,WUHU216DAVISVP2,2013-04-27 12:21:00,
2013-04-27 08:26:00,47.4,40.2,30.32,ESE,106,3.0,4.0,76,0.00,,,0.00,WUHU216DAVISVP2,2013-04-27 12:26:00,
2013-04-27 08:43:00,49.0,40.8,30.32,ESE,108,3.0,4.0,73,0.00,,,0.00,WUHU216DAVISVP2,2013-04-27 12:43:00,
2013-04-27 08:48:00,49.5,40.8,30.32,ESE,123,2.0,4.0,72,0.00,,,0.00,WUHU216DAVISVP2,2013-04-27 12:48:00,
2013-04-27 09:05:00,51.3,41.1,30.32,SE,145,4.0,5.0,68,0.00,,,0.00,WUHU216DAVISVP2,2013-04-27 13:05:00,
2013-04-27 09:10:00,51.7,39.5,30.32,SE,146,5.0,7.0,63,0.00,,,0.00,WUHU216DAVISVP2,2013-04-27 13:10:00,
2013-04-27 09:15:00,51.9,39.7,30.31,SE,138,4.0,7.0,63,0.00,,,0.00,WUHU216DAVISVP2,2013-04-27 13:15:00,
2013-04-27 09:26:00,53.1,40.5,30.31,SE,127,5.0,7.0,62,0.00,,,0.00,WUHU216DAVISVP2,2013-04-27 13:26:00,
2013-04-27 09:31:00,53.6,40.6,30.31,ESE,113,2.0,7.0,61,0.00,,,0.00,WUHU216DAVISVP2,2013-04-27 13:31:00,
2013-04-27 09:36:00,54.1,40.2,30.31,SSE,148,3.0,6.0,59,0.00,,,0.00,WUHU216DAVISVP2,2013-04-27 13:36:00,
2013-04-27 09:48:00,55.4,41.4,30.31,SE,139,2.0,6.0,59,0.00,,,0.00,WUHU216DAVISVP2,2013-04-27 13:48:00,
2013-04-27 09:53:00,55.9,41.0,30.30,SE,129,2.0,6.0,57,0.00,,,0.00,WUHU216DAVISVP2,2013-04-27 13:53:00,
2013-04-27 10:10:00,57.3,41.3,30.30,SE,141,2.0,5.0,55,0.00,,,0.00,WUHU216DAVISVP2,2013-04-27 14:10:00,
2013-04-27 10:15:00,57.8,41.8,30.29,ESE,115,0.0,5.0,55,0.00,,,0.00,WUHU216DAVISVP2,2013-04-27 14:15:00,
2013-04-27 10:20:00,58.4,42.8,30.29,East,99,1.0,4.0,56,0.00,,,0.00,WUHU216DAVISVP2,2013-04-27 14:20:00,
2013-04-27 10:32:00,58.6,42.1,30.29,ESE,108,5.0,5.0,54,0.00,,,0.00,WUHU216DAVISVP2,2013-04-27 14:32:00,
2013-04-27 10:37:00,58.3,41.3,30.29,ESE,105,2.0,7.0,53,0.00,,,0.00,WUHU216DAVISVP2,2013-04-27 14:37:00,
2013-04-27 10:54:00,58.5,41.0,30.28,East,89,7.0,10.0,52,0.00,,,0.00,WUHU216DAVISVP2,2013-04-27 14:54:00,
2013-04-27 10:59:00,58.7,40.6,30.27,East,99,5.0,10.0,51,0.00,,,0.00,WUHU216DAVISVP2,2013-04-27 14:59:00,
2013-04-27 11:16:00,59.6,41.5,30.28,ESE,112,7.0,11.0,51,0.00,,,0.00,WUHU216DAVISVP2,2013-04-27 15:16:00,
2013-04-27 11:21:00,59.9,42.3,30.28,East,94,7.0,11.0,52,0.00,,,0.00,WUHU216DAVISVP2,2013-04-27 15:21:00,
2013-04-27 11:38:00,60.2,40.4,30.28,SE,143,6.0,12.0,48,0.00,,,0.00,WUHU216DAVISVP2,2013-04-27 15:38:00,
2013-04-27 11:43:00,60.4,40.6,30.27,SE,137,8.0,12.0,48,0.00,,,0.00,WUHU216DAVISVP2,2013-04-27 15:43:00,
2013-04-27 12:00:00,61.5,40.5,30.27,ESE,122,14.0,14.0,46,0.00,,,0.00,WUHU216DAVISVP2,2013-04-27 16:00:00,
2013-04-27 12:05:00,61.8,40.7,30.27,SE,129,7.0,15.0,46,0.00,,,0.00,WUHU216DAVISVP2,2013-04-27 16:05:00,
2013-04-27 12:22:00,61.9,39.7,30.26,ESE,103,10.0,17.0,44,0.00,,,0.00,WUHU216DAVISVP2,2013-04-27 16:22:00,
2013-04-27 12:27:00,62.3,40.0,30.26,SE,136,11.0,17.0,44,0.00,,,0.00,WUHU216DAVISVP2,2013-04-27 16:27:00,
2013-04-27 12:44:00,62.3,38.2,30.26,East,85,13.0,18.0,41,0.00,,,0.00,WUHU216DAVISVP2,2013-04-27 16:44:00,
2013-04-27 12:49:00,62.7,39.2,30.26,ESE,108,7.0,18.0,42,0.00,,,0.00,WUHU216DAVISVP2,2013-04-27 16:49:00,
2013-04-27 12:54:00,63.1,40.8,30.26,ESE,105,12.0,17.0,44,0.00,,,0.00,WUHU216DAVISVP2,2013-04-27 16:54:00,
2013-04-27 13:06:00,63.4,39.3,30.26,SE,139,12.0,18.0,41,0.00,,,0.00,WUHU216DAVISVP2,2013-04-27 17:06:00,
2013-04-27 13:11:00,63.3,39.1,30.26,East,99,15.0,17.0,41,0.00,,,0.00,WUHU216DAVISVP2,2013-04-27 17:11:00,
2013-04-27 13:28:00,63.7,38.1,30.25,East,84,12.0,16.0,39,0.00,,,0.00,WUHU216DAVISVP2,2013-04-27 17:28:00,
2013-04-27 13:33:00,63.9,38.3,30.25,SSE,153,12.0,17.0,39,0.00,,,0.00,WUHU216DAVISVP2,2013-04-27 17:33:00,
2013-04-27 13:50:00,64.0,39.0,30.24,ESE,113,10.0,19.0,40,0.00,,,0.00,WUHU216DAVISVP2,2013-04-27 17:50:00,
2013-04-27 13:55:00,64.1,37.8,30.23,ESE,106,10.0,19.0,38,0.00,,,0.00,WUHU216DAVISVP2,2013-04-27 17:55:00,
2013-04-27 13:59:00,64.2,37.9,30.23,SE,129,9.0,19.0,38,0.00,,,0.00,WUHU216DAVISVP2,2013-04-27 17:59:00,
2013-04-27 14:11:00,64.8,39.8,30.23,ESE,115,11.0,19.0,40,0.00,,,0.00,WUHU216DAVISVP2,2013-04-27 18:11:00,
2013-04-27 14:16:00,64.7,39.0,30.23,ESE,117,11.0,19.0,39,0.00,,,0.00,WUHU216DAVISVP2,2013-04-27 18:16:00,
2013-04-27 14:33:00,65.4,39.0,30.22,SE,135,9.0,19.0,38,0.00,,,0.00,WUHU216DAVISVP2,2013-04-27 18:33:00,
2013-04-27 14:38:00,65.6,39.1,30.22,ESE,113,10.0,19.0,38,0.00,,,0.00,WUHU216DAVISVP2,2013-04-27 18:38:00,
2013-04-27 14:43:00,65.9,40.2,30.22,SE,141,14.0,18.0,39,0.00,,,0.00,WUHU216DAVISVP2,2013-04-27 18:43:00,
2013-04-27 14:55:00,65.9,41.5,30.21,SE,132,14.0,17.0,41,0.00,,,0.00,WUHU216DAVISVP2,2013-04-27 18:55:00,
2013-04-27 15:00:00,66.0,41.6,30.21,ESE,111,13.0,17.0,41,0.00,,,0.00,WUHU216DAVISVP2,2013-04-27 19:00:00,
2013-04-27 15:17:00,65.9,40.8,30.20,ESE,107,14.0,18.0,40,0.00,,,0.00,WUHU216DAVISVP2,2013-04-27 19:17:00,
2013-04-27 15:22:00,65.8,40.0,30.19,East,91,12.0,17.0,39,0.00,,,0.00,WUHU216DAVISVP2,2013-04-27 19:22:00,
2013-04-27 15:39:00,66.1,40.3,30.19,East,95,8.0,19.0,39,0.00,,,0.00,WUHU216DAVISVP2,2013-04-27 19:39:00,
2013-04-27 15:44:00,66.2,41.7,30.18,ESE,103,16.0,19.0,41,0.00,,,0.00,WUHU216DAVISVP2,2013-04-27 19:44:00,
2013-04-27 16:01:00,66.4,43.1,30.17,ESE,112,14.0,18.0,43,0.00,,,0.00,WUHU216DAVISVP2,2013-04-27 20:01:00,
2013-04-27 16:06:00,66.5,41.3,30.17,ESE,122,12.0,19.0,40,0.00,,,0.00,WUHU216DAVISVP2,2013-04-27 20:06:00,
2013-04-27 16:11:00,66.6,41.4,30.17,SE,139,11.0,19.0,40,0.00,,,0.00,WUHU216DAVISVP2,2013-04-27 20:11:00,
2013-04-27 16:23:00,66.8,42.9,30.16,SSE,166,10.0,19.0,42,0.00,,,0.00,WUHU216DAVISVP2,2013-04-27 20:23:00,
2013-04-27 16:28:00,67.1,42.5,30.16,SSE,148,13.0,16.0,41,0.00,,,0.00,WUHU216DAVISVP2,2013-04-27 20:28:00,
2013-04-27 16:45:00,66.9,42.3,30.15,SE,132,10.0,17.0,41,0.00,,,0.00,WUHU216DAVISVP2,2013-04-27 20:45:00,
2013-04-27 16:50:00,67.0,41.7,30.15,East,94,14.0,17.0,40,0.00,,,0.00,WUHU216DAVISVP2,2013-04-27 20:50:00,
2013-04-27 17:07:00,67.1,42.5,30.14,ESE,119,12.0,19.0,41,0.00,,,0.00,WUHU216DAVISVP2,2013-04-27 21:07:00,
2013-04-27 17:12:00,67.3,43.3,30.14,ESE,112,8.0,19.0,42,0.00,,,0.00,WUHU216DAVISVP2,2013-04-27 21:12:00,
2013-04-27 17:29:00,67.4,42.8,30.13,ESE,105,11.0,18.0,41,0.00,,,0.00,WUHU216DAVISVP2,2013-04-27 21:29:00,
2013-04-27 17:34:00,67.2,43.9,30.13,East,99,14.0,21.0,43,0.00,,,0.00,WUHU216DAVISVP2,2013-04-27 21:34:00,
2013-04-27 17:50:00,66.7,43.4,30.13,ESE,123,7.0,20.0,43,0.00,,,0.00,WUHU216DAVISVP2,2013-04-27 21:50:00,
2013-04-27 17:55:00,66.6,43.9,30.13,SE,129,10.0,18.0,44,0.00,,,0.00,WUHU216DAVISVP2,2013-04-27 21:55:00,
2013-04-27 18:00:00,66.5,43.2,30.13,SE,139,11.0,17.0,43,0.00,,,0.00,WUHU216DAVISVP2,2013-04-27 22:00:00,
2013-04-27 18:12:00,66.3,44.3,30.12,ESE,105,8.0,14.0,45,0.00,,,0.00,WUHU216DAVISVP2,2013-04-27 22:12:00,
2013-04-27 18:17:00,66.2,43.0,30.12,ESE,116,11.0,14.0,43,0.00,,,0.00,WUHU216DAVISVP2,2013-04-27 22:17:00,
2013-04-27 18:34:00,65.8,43.2,30.12,SE,134,8.0,17.0,44,0.00,,,0.00,WUHU216DAVISVP2,2013-04-27 22:34:00,
2013-04-27 18:39:00,65.7,43.7,30.12,SE,135,9.0,17.0,45,0.00,,,0.00,WUHU216DAVISVP2,2013-04-27 22:39:00,
2013-04-27 18:56:00,65.2,43.9,30.12,ESE,115,9.0,15.0,46,0.00,,,0.00,WUHU216DAVISVP2,2013-04-27 22:56:00,
2013-04-27 19:01:00,65.0,44.3,30.12,SE,136,8.0,15.0,47,0.00,,,0.00,WUHU216DAVISVP2,2013-04-27 23:01:00,
2013-04-27 19:18:00,64.6,43.3,30.11,ESE,120,12.0,15.0,46,0.00,,,0.00,WUHU216DAVISVP2,2013-04-27 23:18:00,
2013-04-27 19:23:00,64.6,43.9,30.11,SE,127,7.0,14.0,47,0.00,,,0.00,WUHU216DAVISVP2,2013-04-27 23:23:00,
2013-04-27 19:28:00,64.3,45.3,30.11,SSE,153,7.0,14.0,50,0.00,,,0.00,WUHU216DAVISVP2,2013-04-27 23:28:00,
2013-04-27 19:40:00,63.7,46.7,30.10,SSE,151,4.0,13.0,54,0.00,,,0.00,WUHU216DAVISVP2,2013-04-27 23:40:00,
2013-04-27 19:45:00,63.4,46.5,30.10,SSE,160,10.0,13.0,54,0.00,,,0.00,WUHU216DAVISVP2,2013-04-27 23:45:00,
2013-04-27 20:02:00,62.6,47.1,30.10,SSE,159,8.0,11.0,57,0.00,,,0.00,WUHU216DAVISVP2,2013-04-28 00:02:00,
2013-04-27 20:07:00,62.4,47.9,30.10,South,184,6.0,11.0,59,0.00,,,0.00,WUHU216DAVISVP2,2013-04-28 00:07:00,
2013-04-27 20:12:00,62.0,48.4,30.10,South,183,6.0,11.0,61,0.00,,,0.00,WUHU216DAVISVP2,2013-04-28 00:12:00,
2013-04-27 20:24:00,61.3,48.6,30.10,SSE,156,7.0,11.0,63,0.00,,,0.00,WUHU216DAVISVP2,2013-04-28 00:24:00,
2013-04-27 20:29:00,61.0,48.7,30.10,SSE,165,6.0,11.0,64,0.00,,,0.00,WUHU216DAVISVP2,2013-04-28 00:29:00,
2013-04-27 20:46:00,60.2,49.7,30.09,South,176,5.0,8.0,68,0.00,,,0.00,WUHU216DAVISVP2,2013-04-28 00:46:00,
2013-04-27 20:51:00,59.9,49.5,30.09,SSW,208,2.0,6.0,68,0.00,,,0.00,WUHU216DAVISVP2,2013-04-28 00:51:00,
2013-04-27 21:08:00,59.4,49.0,30.09,SE,146,2.0,7.0,68,0.00,,,0.00,WUHU216DAVISVP2,2013-04-28 01:08:00,
2013-04-27 21:13:00,59.3,49.3,30.09,SE,140,2.0,6.0,69,0.00,,,0.00,WUHU216DAVISVP2,2013-04-28 01:13:00,
2013-04-27 21:30:00,58.8,49.2,30.09,South,174,2.0,4.0,70,0.00,,,0.00,WUHU216DAVISVP2,2013-04-28 01:30:00,
2013-04-27 21:35:00,58.8,49.5,30.09,SE,136,2.0,4.0,71,0.00,,,0.00,WUHU216DAVISVP2,2013-04-28 01:35:00,
2013-04-27 21:40:00,58.6,49.4,30.09,SE,140,2.0,4.0,71,0.00,,,0.00,WUHU216DAVISVP2,2013-04-28 01:40:00,
2013-04-27 21:51:00,58.4,49.2,30.09,SE,127,2.0,4.0,71,0.00,,,0.00,WUHU216DAVISVP2,2013-04-28 01:51:00,
2013-04-27 21:56:00,58.4,49.5,30.09,SE,143,2.0,4.0,72,0.00,,,0.00,WUHU216DAVISVP2,2013-04-28 01:56:00,
2013-04-27 22:01:00,58.3,49.1,30.09,ESE,121,1.0,4.0,71,0.00,,,0.00,WUHU216DAVISVP2,2013-04-28 02:01:00,
2013-04-27 22:13:00,58.3,49.3,30.09,SE,130,1.0,3.0,72,0.00,,,0.00,WUHU216DAVISVP2,2013-04-28 02:13:00,
2013-04-27 22:18:00,58.2,49.3,30.08,ESE,113,1.0,3.0,72,0.00,,,0.00,WUHU216DAVISVP2,2013-04-28 02:18:00,
2013-04-27 22:24:00,58.2,49.2,30.08,SE,138,2.0,4.0,72,0.00,,,0.00,WUHU216DAVISVP2,2013-04-28 02:24:00,
2013-04-27 22:29:00,58.2,49.3,30.08,SE,129,2.0,4.0,72,0.00,,,0.00,WUHU216DAVISVP2,2013-04-28 02:29:00,
2013-04-27 22:34:00,58.2,49.7,30.09,SE,136,1.0,4.0,73,0.00,,,0.00,WUHU216DAVISVP2,2013-04-28 02:34:00,
2013-04-27 22:50:00,58.0,49.9,30.08,ESE,116,0.0,4.0,74,0.00,,,0.00,WUHU216DAVISVP2,2013-04-28 02:50:00,
2013-04-27 22:55:00,57.8,50.0,30.07,ENE,71,1.0,2.0,75,0.00,,,0.00,WUHU216DAVISVP2,2013-04-28 02:55:00,
2013-04-27 23:00:00,57.6,49.8,30.07,ENE,68,1.0,2.0,75,0.00,,,0.00,WUHU216DAVISVP2,2013-04-28 03:00:00,
2013-04-27 23:12:00,57.2,50.1,30.07,East,86,0.0,2.0,77,0.00,,,0.00,WUHU216DAVISVP2,2013-04-28 03:12:00,
2013-04-27 23:17:00,56.8,50.1,30.07,East,86,0.0,2.0,78,0.00,,,0.00,WUHU216DAVISVP2,2013-04-28 03:17:00,
2013-04-27 23:33:00,56.2,49.8,30.06,ENE,67,2.0,2.0,79,0.00,,,0.00,WUHU216DAVISVP2,2013-04-28 03:33:00,
2013-04-27 23:38:00,56.5,50.1,30.06,East,81,2.0,3.0,79,0.00,,,0.00,WUHU216DAVISVP2,2013-04-28 03:38:00,
2013-04-27 23:55:00,57.0,50.6,30.06,East,96,5.0,7.0,79,0.00,,,0.00,WUHU216DAVISVP2,2013-04-28 03:55:00,